sensor_id;sensor_type;location;lat;lon;timestamp;P1;durP1;ratioP1;P2;durP2;ratioP2
61104;SDS011;46987;32.638;-115.438;2024-01-16T00:00:31;8.10;;;2.13;;
61104;SDS011;46987;32.638;-115.438;2024-01-16T00:02:58;14.63;;;3.35;;
61104;SDS011;46987;32.638;-115.438;2024-01-16T00:05:25;11.52;;;3.03;;
61104;SDS011;46987;32.638;-115.438;2024-01-16T00:07:52;9.13;;;3.33;;
61104;SDS011;46987;32.638;-115.438;2024-01-16T00:10:20;10.27;;;3.25;;
61104;SDS011;46987;32.638;-115.438;2024-01-16T00:12:47;11.43;;;4.45;;
61104;SDS011;46987;32.638;-115.438;2024-01-16T00:15:13;14.60;;;3.75;;
61104;SDS011;46987;32.638;-115.438;2024-01-16T00:17:40;14.75;;;4.03;;
61104;SDS011;46987;32.638;-115.438;2024-01-16T00:20:07;11.95;;;3.72;;
61104;SDS011;46987;32.638;-115.438;2024-01-16T00:22:34;8.90;;;3.20;;
61104;SDS011;46987;32.638;-115.438;2024-01-16T00:25:01;9.10;;;3.58;;
61104;SDS011;46987;32.638;-115.438;2024-01-16T00:27:30;14.45;;;3.88;;
61104;SDS011;46987;32.638;-115.438;2024-01-16T00:29:57;15.23;;;3.65;;
61104;SDS011;46987;32.638;-115.438;2024-01-16T00:32:25;14.63;;;4.53;;
61104;SDS011;46987;32.638;-115.438;2024-01-16T00:34:53;8.23;;;3.67;;
61104;SDS011;46987;32.638;-115.438;2024-01-16T00:37:21;9.88;;;3.15;;
61104;SDS011;46987;32.638;-115.438;2024-01-16T00:39:52;12.77;;;3.47;;
61104;SDS011;46987;32.638;-115.438;2024-01-16T00:42:20;14.43;;;4.50;;
61104;SDS011;46987;32.638;-115.438;2024-01-16T00:44:50;11.00;;;4.18;;
61104;SDS011;46987;32.638;-115.438;2024-01-16T00:47:18;13.05;;;3.53;;
61104;SDS011;46987;32.638;-115.438;2024-01-16T00:49:46;13.15;;;3.58;;
61104;SDS011;46987;32.638;-115.438;2024-01-16T00:52:14;13.48;;;3.78;;
61104;SDS011;46987;32.638;-115.438;2024-01-16T00:54:40;13.85;;;4.15;;
61104;SDS011;46987;32.638;-115.438;2024-01-16T00:57:08;18.33;;;4.20;;
61104;SDS011;46987;32.638;-115.438;2024-01-16T00:59:34;21.23;;;4.30;;
61104;SDS011;46987;32.638;-115.438;2024-01-16T01:02:03;15.82;;;3.80;;
61104;SDS011;46987;32.638;-115.438;2024-01-16T01:04:32;19.20;;;4.93;;
61104;SDS011;46987;32.638;-115.438;2024-01-16T01:06:58;18.27;;;5.38;;
61104;SDS011;46987;32.638;-115.438;2024-01-16T01:09:25;21.75;;;6.55;;
61104;SDS011;46987;32.638;-115.438;2024-01-16T01:11:52;22.30;;;4.80;;
61104;SDS011;46987;32.638;-115.438;2024-01-16T01:14:19;20.52;;;4.85;;
61104;SDS011;46987;32.638;-115.438;2024-01-16T01:16:46;22.13;;;4.65;;
61104;SDS011;46987;32.638;-115.438;2024-01-16T01:19:15;27.33;;;6.07;;
61104;SDS011;46987;32.638;-115.438;2024-01-16T01:21:42;19.75;;;5.35;;
61104;SDS011;46987;32.638;-115.438;2024-01-16T01:24:08;28.23;;;5.25;;
61104;SDS011;46987;32.638;-115.438;2024-01-16T01:26:35;31.48;;;5.60;;
61104;SDS011;46987;32.638;-115.438;2024-01-16T01:29:02;31.23;;;5.65;;
61104;SDS011;46987;32.638;-115.438;2024-01-16T01:31:29;26.45;;;5.60;;
61104;SDS011;46987;32.638;-115.438;2024-01-16T01:33:59;20.10;;;4.95;;
61104;SDS011;46987;32.638;-115.438;2024-01-16T01:36:28;21.67;;;6.35;;
61104;SDS011;46987;32.638;-115.438;2024-01-16T01:38:56;31.65;;;6.72;;
61104;SDS011;46987;32.638;-115.438;2024-01-16T01:41:23;32.45;;;7.15;;
61104;SDS011;46987;32.638;-115.438;2024-01-16T01:43:50;32.88;;;7.78;;
61104;SDS011;46987;32.638;-115.438;2024-01-16T01:46:18;37.60;;;7.80;;
61104;SDS011;46987;32.638;-115.438;2024-01-16T01:48:47;26.70;;;6.90;;
61104;SDS011;46987;32.638;-115.438;2024-01-16T01:51:17;39.90;;;8.50;;
61104;SDS011;46987;32.638;-115.438;2024-01-16T01:53:48;29.88;;;7.15;;
61104;SDS011;46987;32.638;-115.438;2024-01-16T01:56:18;33.08;;;9.35;;
61104;SDS011;46987;32.638;-115.438;2024-01-16T01:58:53;30.77;;;8.48;;
61104;SDS011;46987;32.638;-115.438;2024-01-16T02:01:22;39.33;;;12.40;;
61104;SDS011;46987;32.638;-115.438;2024-01-16T02:03:51;39.40;;;12.20;;
61104;SDS011;46987;32.638;-115.438;2024-01-16T02:06:21;35.95;;;10.57;;
61104;SDS011;46987;32.638;-115.438;2024-01-16T02:08:52;37.17;;;11.35;;
61104;SDS011;46987;32.638;-115.438;2024-01-16T02:11:21;46.60;;;12.68;;
61104;SDS011;46987;32.638;-115.438;2024-01-16T02:13:49;45.45;;;12.70;;
61104;SDS011;46987;32.638;-115.438;2024-01-16T02:16:19;42.28;;;15.13;;
61104;SDS011;46987;32.638;-115.438;2024-01-16T02:18:47;47.47;;;16.85;;
61104;SDS011;46987;32.638;-115.438;2024-01-16T02:21:15;46.58;;;15.80;;
61104;SDS011;46987;32.638;-115.438;2024-01-16T02:23:47;57.05;;;16.80;;
61104;SDS011;46987;32.638;-115.438;2024-01-16T02:26:14;49.28;;;14.88;;
61104;SDS011;46987;32.638;-115.438;2024-01-16T02:28:45;40.25;;;13.82;;
61104;SDS011;46987;32.638;-115.438;2024-01-16T02:31:12;46.97;;;14.27;;
61104;SDS011;46987;32.638;-115.438;2024-01-16T02:33:40;42.67;;;13.05;;
61104;SDS011;46987;32.638;-115.438;2024-01-16T02:36:06;42.80;;;13.70;;
61104;SDS011;46987;32.638;-115.438;2024-01-16T02:38:34;39.35;;;13.23;;
61104;SDS011;46987;32.638;-115.438;2024-01-16T02:41:03;42.40;;;12.88;;
61104;SDS011;46987;32.638;-115.438;2024-01-16T02:43:30;49.60;;;13.52;;
61104;SDS011;46987;32.638;-115.438;2024-01-16T02:45:57;40.28;;;13.15;;
61104;SDS011;46987;32.638;-115.438;2024-01-16T02:48:24;49.22;;;12.43;;
61104;SDS011;46987;32.638;-115.438;2024-01-16T02:50:51;38.17;;;11.93;;
61104;SDS011;46987;32.638;-115.438;2024-01-16T02:53:18;39.63;;;12.38;;
61104;SDS011;46987;32.638;-115.438;2024-01-16T02:55:45;35.95;;;12.77;;
61104;SDS011;46987;32.638;-115.438;2024-01-16T02:58:13;40.58;;;11.70;;
61104;SDS011;46987;32.638;-115.438;2024-01-16T03:00:40;35.42;;;11.40;;
61104;SDS011;46987;32.638;-115.438;2024-01-16T03:03:07;33.30;;;11.23;;
61104;SDS011;46987;32.638;-115.438;2024-01-16T03:05:35;38.67;;;12.20;;
61104;SDS011;46987;32.638;-115.438;2024-01-16T03:08:01;44.53;;;12.18;;
61104;SDS011;46987;32.638;-115.438;2024-01-16T03:10:28;36.33;;;12.85;;
61104;SDS011;46987;32.638;-115.438;2024-01-16T03:12:55;51.35;;;12.60;;
61104;SDS011;46987;32.638;-115.438;2024-01-16T03:15:24;38.38;;;11.85;;
61104;SDS011;46987;32.638;-115.438;2024-01-16T03:17:52;41.38;;;12.52;;
61104;SDS011;46987;32.638;-115.438;2024-01-16T03:20:18;40.35;;;10.75;;
61104;SDS011;46987;32.638;-115.438;2024-01-16T03:22:45;47.25;;;12.70;;
61104;SDS011;46987;32.638;-115.438;2024-01-16T03:25:12;35.47;;;12.13;;
61104;SDS011;46987;32.638;-115.438;2024-01-16T03:27:39;30.63;;;11.75;;
61104;SDS011;46987;32.638;-115.438;2024-01-16T03:30:06;42.17;;;11.15;;
61104;SDS011;46987;32.638;-115.438;2024-01-16T03:32:36;44.20;;;11.50;;
61104;SDS011;46987;32.638;-115.438;2024-01-16T03:35:03;37.65;;;10.77;;
61104;SDS011;46987;32.638;-115.438;2024-01-16T03:37:30;39.75;;;12.00;;
61104;SDS011;46987;32.638;-115.438;2024-01-16T03:39:56;41.90;;;11.30;;
61104;SDS011;46987;32.638;-115.438;2024-01-16T03:42:23;44.38;;;12.07;;
61104;SDS011;46987;32.638;-115.438;2024-01-16T03:44:50;33.95;;;11.43;;
61104;SDS011;46987;32.638;-115.438;2024-01-16T03:47:17;45.05;;;12.38;;
61104;SDS011;46987;32.638;-115.438;2024-01-16T03:49:46;39.97;;;10.93;;
61104;SDS011;46987;32.638;-115.438;2024-01-16T03:52:13;48.65;;;14.25;;
61104;SDS011;46987;32.638;-115.438;2024-01-16T03:54:40;48.47;;;13.98;;
61104;SDS011;46987;32.638;-115.438;2024-01-16T03:57:07;67.50;;;17.40;;
61104;SDS011;46987;32.638;-115.438;2024-01-16T03:59:35;58.13;;;17.27;;
61104;SDS011;46987;32.638;-115.438;2024-01-16T04:02:02;59.08;;;17.27;;
61104;SDS011;46987;32.638;-115.438;2024-01-16T04:04:29;63.38;;;16.80;;
61104;SDS011;46987;32.638;-115.438;2024-01-16T04:06:58;58.53;;;15.80;;
61104;SDS011;46987;32.638;-115.438;2024-01-16T04:09:25;44.72;;;16.67;;
61104;SDS011;46987;32.638;-115.438;2024-01-16T04:11:52;47.28;;;15.18;;
61104;SDS011;46987;32.638;-115.438;2024-01-16T04:14:18;61.22;;;15.73;;
61104;SDS011;46987;32.638;-115.438;2024-01-16T04:16:45;52.28;;;16.23;;
61104;SDS011;46987;32.638;-115.438;2024-01-16T04:19:12;50.88;;;15.85;;
61104;SDS011;46987;32.638;-115.438;2024-01-16T04:21:39;51.70;;;15.02;;
61104;SDS011;46987;32.638;-115.438;2024-01-16T04:24:07;50.60;;;16.02;;
61104;SDS011;46987;32.638;-115.438;2024-01-16T04:26:35;48.08;;;15.63;;
61104;SDS011;46987;32.638;-115.438;2024-01-16T04:29:02;45.58;;;14.88;;
61104;SDS011;46987;32.638;-115.438;2024-01-16T04:31:30;42.45;;;14.52;;
61104;SDS011;46987;32.638;-115.438;2024-01-16T04:33:57;54.38;;;15.85;;
61104;SDS011;46987;32.638;-115.438;2024-01-16T04:36:24;48.90;;;13.77;;
61104;SDS011;46987;32.638;-115.438;2024-01-16T04:38:51;47.25;;;13.80;;
61104;SDS011;46987;32.638;-115.438;2024-01-16T04:41:20;44.88;;;15.35;;
61104;SDS011;46987;32.638;-115.438;2024-01-16T04:43:46;42.25;;;15.95;;
61104;SDS011;46987;32.638;-115.438;2024-01-16T04:46:14;64.05;;;15.68;;
61104;SDS011;46987;32.638;-115.438;2024-01-16T04:48:41;47.78;;;15.40;;
61104;SDS011;46987;32.638;-115.438;2024-01-16T04:51:07;58.40;;;16.77;;
61104;SDS011;46987;32.638;-115.438;2024-01-16T04:53:34;43.35;;;17.17;;
61104;SDS011;46987;32.638;-115.438;2024-01-16T04:56:01;49.28;;;14.50;;
61104;SDS011;46987;32.638;-115.438;2024-01-16T04:58:30;49.88;;;14.48;;
61104;SDS011;46987;32.638;-115.438;2024-01-16T05:00:57;46.00;;;14.73;;
61104;SDS011;46987;32.638;-115.438;2024-01-16T05:03:23;50.78;;;14.43;;
61104;SDS011;46987;32.638;-115.438;2024-01-16T05:05:50;67.15;;;16.27;;
61104;SDS011;46987;32.638;-115.438;2024-01-16T05:08:17;57.63;;;14.70;;
61104;SDS011;46987;32.638;-115.438;2024-01-16T05:10:43;47.92;;;14.18;;
61104;SDS011;46987;32.638;-115.438;2024-01-16T05:13:10;63.33;;;15.73;;
61104;SDS011;46987;32.638;-115.438;2024-01-16T05:15:40;51.15;;;14.32;;
61104;SDS011;46987;32.638;-115.438;2024-01-16T05:18:08;50.72;;;14.25;;
61104;SDS011;46987;32.638;-115.438;2024-01-16T05:20:35;60.13;;;15.43;;
61104;SDS011;46987;32.638;-115.438;2024-01-16T05:23:02;42.63;;;13.45;;
61104;SDS011;46987;32.638;-115.438;2024-01-16T05:25:28;47.55;;;14.75;;
61104;SDS011;46987;32.638;-115.438;2024-01-16T05:27:56;41.47;;;14.88;;
61104;SDS011;46987;32.638;-115.438;2024-01-16T05:30:23;53.03;;;14.07;;
61104;SDS011;46987;32.638;-115.438;2024-01-16T05:32:51;52.05;;;13.35;;
61104;SDS011;46987;32.638;-115.438;2024-01-16T05:35:18;41.40;;;14.68;;
61104;SDS011;46987;32.638;-115.438;2024-01-16T05:37:45;33.38;;;13.57;;
61104;SDS011;46987;32.638;-115.438;2024-01-16T05:40:12;43.67;;;13.35;;
61104;SDS011;46987;32.638;-115.438;2024-01-16T05:42:39;39.78;;;14.00;;
61104;SDS011;46987;32.638;-115.438;2024-01-16T05:45:06;42.53;;;13.23;;
61104;SDS011;46987;32.638;-115.438;2024-01-16T05:47:33;43.55;;;14.93;;
61104;SDS011;46987;32.638;-115.438;2024-01-16T05:50:01;34.90;;;13.50;;
61104;SDS011;46987;32.638;-115.438;2024-01-16T05:52:28;42.17;;;13.10;;
61104;SDS011;46987;32.638;-115.438;2024-01-16T05:54:55;44.08;;;13.82;;
61104;SDS011;46987;32.638;-115.438;2024-01-16T05:57:23;47.40;;;13.25;;
61104;SDS011;46987;32.638;-115.438;2024-01-16T05:59:50;44.25;;;13.93;;
61104;SDS011;46987;32.638;-115.438;2024-01-16T06:02:17;34.38;;;13.98;;
61104;SDS011;46987;32.638;-115.438;2024-01-16T06:04:43;39.22;;;13.77;;
61104;SDS011;46987;32.638;-115.438;2024-01-16T06:07:12;43.35;;;14.23;;
61104;SDS011;46987;32.638;-115.438;2024-01-16T06:09:39;45.55;;;13.63;;
61104;SDS011;46987;32.638;-115.438;2024-01-16T06:12:09;34.03;;;13.13;;
61104;SDS011;46987;32.638;-115.438;2024-01-16T06:14:35;38.90;;;13.20;;
61104;SDS011;46987;32.638;-115.438;2024-01-16T06:17:02;36.80;;;13.60;;
61104;SDS011;46987;32.638;-115.438;2024-01-16T06:19:31;40.60;;;14.63;;
61104;SDS011;46987;32.638;-115.438;2024-01-16T06:21:58;50.22;;;13.85;;
61104;SDS011;46987;32.638;-115.438;2024-01-16T06:24:27;42.53;;;14.95;;
61104;SDS011;46987;32.638;-115.438;2024-01-16T06:26:54;31.25;;;12.63;;
61104;SDS011;46987;32.638;-115.438;2024-01-16T06:29:20;38.03;;;12.93;;
61104;SDS011;46987;32.638;-115.438;2024-01-16T06:31:47;36.30;;;12.82;;
61104;SDS011;46987;32.638;-115.438;2024-01-16T06:34:14;32.70;;;12.80;;
61104;SDS011;46987;32.638;-115.438;2024-01-16T06:36:41;31.50;;;12.65;;
61104;SDS011;46987;32.638;-115.438;2024-01-16T06:39:07;34.42;;;11.52;;
61104;SDS011;46987;32.638;-115.438;2024-01-16T06:41:36;28.35;;;12.00;;
61104;SDS011;46987;32.638;-115.438;2024-01-16T06:44:03;39.25;;;11.63;;
61104;SDS011;46987;32.638;-115.438;2024-01-16T06:46:29;29.10;;;14.93;;
61104;SDS011;46987;32.638;-115.438;2024-01-16T06:48:56;30.67;;;14.38;;
61104;SDS011;46987;32.638;-115.438;2024-01-16T06:51:23;28.55;;;14.30;;
61104;SDS011;46987;32.638;-115.438;2024-01-16T06:53:50;29.40;;;12.98;;
61104;SDS011;46987;32.638;-115.438;2024-01-16T06:56:17;28.98;;;13.35;;
61104;SDS011;46987;32.638;-115.438;2024-01-16T06:58:45;29.30;;;14.02;;
61104;SDS011;46987;32.638;-115.438;2024-01-16T07:01:12;26.20;;;15.25;;
61104;SDS011;46987;32.638;-115.438;2024-01-16T07:03:40;34.28;;;14.65;;
61104;SDS011;46987;32.638;-115.438;2024-01-16T07:06:07;32.55;;;13.63;;
61104;SDS011;46987;32.638;-115.438;2024-01-16T07:08:33;31.45;;;14.38;;
61104;SDS011;46987;32.638;-115.438;2024-01-16T07:11:00;34.53;;;13.60;;
61104;SDS011;46987;32.638;-115.438;2024-01-16T07:13:27;43.88;;;15.38;;
61104;SDS011;46987;32.638;-115.438;2024-01-16T07:15:55;36.85;;;16.70;;
61104;SDS011;46987;32.638;-115.438;2024-01-16T07:18:22;39.67;;;19.77;;
61104;SDS011;46987;32.638;-115.438;2024-01-16T07:20:49;46.25;;;22.63;;
61104;SDS011;46987;32.638;-115.438;2024-01-16T07:23:15;53.25;;;23.20;;
61104;SDS011;46987;32.638;-115.438;2024-01-16T07:25:42;56.40;;;26.33;;
61104;SDS011;46987;32.638;-115.438;2024-01-16T07:28:09;54.90;;;28.85;;
61104;SDS011;46987;32.638;-115.438;2024-01-16T07:30:36;67.15;;;30.20;;
61104;SDS011;46987;32.638;-115.438;2024-01-16T07:33:05;82.82;;;36.15;;
61104;SDS011;46987;32.638;-115.438;2024-01-16T07:35:32;78.03;;;34.55;;
61104;SDS011;46987;32.638;-115.438;2024-01-16T07:37:58;81.90;;;36.08;;
61104;SDS011;46987;32.638;-115.438;2024-01-16T07:40:25;86.00;;;38.47;;
61104;SDS011;46987;32.638;-115.438;2024-01-16T07:42:52;71.85;;;36.25;;
61104;SDS011;46987;32.638;-115.438;2024-01-16T07:45:19;80.50;;;35.97;;
61104;SDS011;46987;32.638;-115.438;2024-01-16T07:47:46;81.00;;;34.80;;
61104;SDS011;46987;32.638;-115.438;2024-01-16T07:50:15;88.32;;;35.38;;
61104;SDS011;46987;32.638;-115.438;2024-01-16T07:52:42;85.72;;;35.80;;
61104;SDS011;46987;32.638;-115.438;2024-01-16T07:55:09;88.25;;;34.60;;
61104;SDS011;46987;32.638;-115.438;2024-01-16T07:57:35;83.82;;;35.15;;
61104;SDS011;46987;32.638;-115.438;2024-01-16T08:00:02;82.40;;;35.22;;
61104;SDS011;46987;32.638;-115.438;2024-01-16T08:02:32;84.90;;;34.00;;
61104;SDS011;46987;32.638;-115.438;2024-01-16T08:04:58;88.55;;;36.63;;
61104;SDS011;46987;32.638;-115.438;2024-01-16T08:07:27;70.63;;;34.42;;
61104;SDS011;46987;32.638;-115.438;2024-01-16T08:09:54;77.65;;;34.97;;
61104;SDS011;46987;32.638;-115.438;2024-01-16T08:12:20;87.20;;;35.65;;
61104;SDS011;46987;32.638;-115.438;2024-01-16T08:14:47;83.75;;;35.10;;
61104;SDS011;46987;32.638;-115.438;2024-01-16T08:17:13;81.68;;;34.85;;
61104;SDS011;46987;32.638;-115.438;2024-01-16T08:19:41;82.35;;;31.95;;
61104;SDS011;46987;32.638;-115.438;2024-01-16T08:22:07;70.85;;;33.00;;
61104;SDS011;46987;32.638;-115.438;2024-01-16T08:24:36;71.45;;;31.70;;
61104;SDS011;46987;32.638;-115.438;2024-01-16T08:27:03;78.60;;;33.70;;
61104;SDS011;46987;32.638;-115.438;2024-01-16T08:29:29;83.63;;;33.08;;
61104;SDS011;46987;32.638;-115.438;2024-01-16T08:31:56;73.40;;;33.33;;
61104;SDS011;46987;32.638;-115.438;2024-01-16T08:34:23;70.38;;;32.13;;
61104;SDS011;46987;32.638;-115.438;2024-01-16T08:36:49;83.05;;;32.95;;
61104;SDS011;46987;32.638;-115.438;2024-01-16T08:39:16;73.55;;;32.72;;
61104;SDS011;46987;32.638;-115.438;2024-01-16T08:41:44;77.15;;;32.75;;
61104;SDS011;46987;32.638;-115.438;2024-01-16T08:44:12;61.45;;;32.60;;
61104;SDS011;46987;32.638;-115.438;2024-01-16T08:46:38;74.90;;;31.30;;
61104;SDS011;46987;32.638;-115.438;2024-01-16T08:49:05;64.05;;;31.90;;
61104;SDS011;46987;32.638;-115.438;2024-01-16T08:51:32;71.70;;;32.20;;
61104;SDS011;46987;32.638;-115.438;2024-01-16T08:53:58;77.25;;;32.45;;
61104;SDS011;46987;32.638;-115.438;2024-01-16T08:56:25;62.15;;;30.10;;
61104;SDS011;46987;32.638;-115.438;2024-01-16T08:58:54;65.78;;;31.08;;
61104;SDS011;46987;32.638;-115.438;2024-01-16T09:01:20;72.55;;;30.88;;
61104;SDS011;46987;32.638;-115.438;2024-01-16T09:03:47;75.07;;;30.42;;
61104;SDS011;46987;32.638;-115.438;2024-01-16T09:06:14;61.15;;;29.30;;
61104;SDS011;46987;32.638;-115.438;2024-01-16T09:08:41;67.68;;;31.10;;
61104;SDS011;46987;32.638;-115.438;2024-01-16T09:11:07;58.58;;;29.70;;
61104;SDS011;46987;32.638;-115.438;2024-01-16T09:13:34;67.38;;;30.25;;
61104;SDS011;46987;32.638;-115.438;2024-01-16T09:16:03;66.88;;;29.88;;
61104;SDS011;46987;32.638;-115.438;2024-01-16T09:18:30;61.88;;;29.58;;
61104;SDS011;46987;32.638;-115.438;2024-01-16T09:20:56;62.97;;;32.40;;
61104;SDS011;46987;32.638;-115.438;2024-01-16T09:23:23;67.20;;;29.90;;
61104;SDS011;46987;32.638;-115.438;2024-01-16T09:25:50;55.35;;;28.80;;
61104;SDS011;46987;32.638;-115.438;2024-01-16T09:28:16;62.85;;;30.75;;
61104;SDS011;46987;32.638;-115.438;2024-01-16T09:30:43;55.38;;;28.60;;
61104;SDS011;46987;32.638;-115.438;2024-01-16T09:33:11;55.58;;;30.80;;
61104;SDS011;46987;32.638;-115.438;2024-01-16T09:35:39;62.83;;;30.42;;
61104;SDS011;46987;32.638;-115.438;2024-01-16T09:38:06;63.13;;;31.85;;
61104;SDS011;46987;32.638;-115.438;2024-01-16T09:40:32;65.80;;;29.50;;
61104;SDS011;46987;32.638;-115.438;2024-01-16T09:42:59;54.08;;;32.53;;
61104;SDS011;46987;32.638;-115.438;2024-01-16T09:45:26;56.55;;;30.77;;
61104;SDS011;46987;32.638;-115.438;2024-01-16T09:47:54;70.15;;;31.77;;
61104;SDS011;46987;32.638;-115.438;2024-01-16T09:50:22;57.35;;;30.90;;
61104;SDS011;46987;32.638;-115.438;2024-01-16T09:52:49;58.88;;;30.65;;
61104;SDS011;46987;32.638;-115.438;2024-01-16T09:55:15;55.45;;;29.48;;
61104;SDS011;46987;32.638;-115.438;2024-01-16T09:57:42;60.83;;;32.38;;
61104;SDS011;46987;32.638;-115.438;2024-01-16T10:00:11;50.90;;;30.13;;
61104;SDS011;46987;32.638;-115.438;2024-01-16T10:02:38;55.75;;;30.95;;
61104;SDS011;46987;32.638;-115.438;2024-01-16T10:05:06;51.10;;;29.95;;
61104;SDS011;46987;32.638;-115.438;2024-01-16T10:07:36;56.72;;;31.33;;
61104;SDS011;46987;32.638;-115.438;2024-01-16T10:10:03;58.67;;;31.27;;
61104;SDS011;46987;32.638;-115.438;2024-01-16T10:12:30;47.08;;;25.63;;
61104;SDS011;46987;32.638;-115.438;2024-01-16T10:14:57;49.67;;;23.63;;
61104;SDS011;46987;32.638;-115.438;2024-01-16T10:17:35;45.35;;;22.42;;
61104;SDS011;46987;32.638;-115.438;2024-01-16T10:20:02;42.10;;;22.63;;
61104;SDS011;46987;32.638;-115.438;2024-01-16T10:22:30;40.72;;;21.25;;
61104;SDS011;46987;32.638;-115.438;2024-01-16T10:25:06;30.77;;;19.20;;
61104;SDS011;46987;32.638;-115.438;2024-01-16T10:27:33;36.25;;;18.48;;
61104;SDS011;46987;32.638;-115.438;2024-01-16T10:30:00;32.67;;;17.70;;
61104;SDS011;46987;32.638;-115.438;2024-01-16T10:32:27;24.98;;;13.13;;
61104;SDS011;46987;32.638;-115.438;2024-01-16T10:35:02;26.20;;;13.68;;
61104;SDS011;46987;32.638;-115.438;2024-01-16T10:37:30;29.33;;;14.27;;
61104;SDS011;46987;32.638;-115.438;2024-01-16T10:39:57;31.40;;;13.30;;
61104;SDS011;46987;32.638;-115.438;2024-01-16T10:42:26;26.85;;;13.80;;
61104;SDS011;46987;32.638;-115.438;2024-01-16T10:44:53;25.73;;;12.57;;
61104;SDS011;46987;32.638;-115.438;2024-01-16T10:47:21;30.50;;;12.85;;
61104;SDS011;46987;32.638;-115.438;2024-01-16T10:49:48;20.63;;;12.18;;
61104;SDS011;46987;32.638;-115.438;2024-01-16T10:52:15;20.33;;;12.40;;
61104;SDS011;46987;32.638;-115.438;2024-01-16T10:54:43;24.77;;;13.65;;
61104;SDS011;46987;32.638;-115.438;2024-01-16T10:57:13;27.70;;;13.13;;
61104;SDS011;46987;32.638;-115.438;2024-01-16T10:59:42;22.80;;;13.55;;
61104;SDS011;46987;32.638;-115.438;2024-01-16T11:02:12;24.83;;;12.80;;
61104;SDS011;46987;32.638;-115.438;2024-01-16T11:04:41;25.02;;;13.88;;
61104;SDS011;46987;32.638;-115.438;2024-01-16T11:07:08;24.25;;;14.00;;
61104;SDS011;46987;32.638;-115.438;2024-01-16T11:09:35;24.20;;;14.80;;
61104;SDS011;46987;32.638;-115.438;2024-01-16T11:12:02;27.95;;;14.98;;
61104;SDS011;46987;32.638;-115.438;2024-01-16T11:14:29;29.35;;;13.82;;
61104;SDS011;46987;32.638;-115.438;2024-01-16T11:16:58;27.00;;;13.85;;
61104;SDS011;46987;32.638;-115.438;2024-01-16T11:19:27;30.08;;;14.20;;
61104;SDS011;46987;32.638;-115.438;2024-01-16T11:21:54;28.10;;;13.80;;
61104;SDS011;46987;32.638;-115.438;2024-01-16T11:24:21;26.88;;;14.13;;
61104;SDS011;46987;32.638;-115.438;2024-01-16T11:26:47;22.13;;;13.20;;
61104;SDS011;46987;32.638;-115.438;2024-01-16T11:32:01;22.60;;;11.30;;
61104;SDS011;46987;32.638;-115.438;2024-01-16T11:37:15;16.42;;;10.98;;
61104;SDS011;46987;32.638;-115.438;2024-01-16T11:39:52;26.08;;;12.10;;
61104;SDS011;46987;32.638;-115.438;2024-01-16T11:42:25;22.52;;;12.43;;
61104;SDS011;46987;32.638;-115.438;2024-01-16T11:44:53;23.90;;;11.80;;
61104;SDS011;46987;32.638;-115.438;2024-01-16T11:47:23;23.20;;;12.30;;
61104;SDS011;46987;32.638;-115.438;2024-01-16T11:49:50;17.83;;;10.80;;
61104;SDS011;46987;32.638;-115.438;2024-01-16T11:52:38;23.75;;;11.98;;
61104;SDS011;46987;32.638;-115.438;2024-01-16T11:57:50;25.30;;;10.88;;
61104;SDS011;46987;32.638;-115.438;2024-01-16T12:00:24;20.70;;;12.00;;
61104;SDS011;46987;32.638;-115.438;2024-01-16T12:02:57;22.92;;;11.00;;
61104;SDS011;46987;32.638;-115.438;2024-01-16T12:05:25;18.05;;;11.88;;
61104;SDS011;46987;32.638;-115.438;2024-01-16T12:07:52;29.38;;;16.50;;
61104;SDS011;46987;32.638;-115.438;2024-01-16T12:10:21;23.65;;;14.60;;
61104;SDS011;46987;32.638;-115.438;2024-01-16T12:12:48;25.58;;;13.43;;
61104;SDS011;46987;32.638;-115.438;2024-01-16T12:15:16;22.42;;;12.15;;
61104;SDS011;46987;32.638;-115.438;2024-01-16T12:17:53;19.48;;;12.00;;
61104;SDS011;46987;32.638;-115.438;2024-01-16T12:20:24;22.25;;;11.00;;
61104;SDS011;46987;32.638;-115.438;2024-01-16T12:22:54;18.75;;;10.52;;
61104;SDS011;46987;32.638;-115.438;2024-01-16T12:25:21;20.48;;;10.15;;
61104;SDS011;46987;32.638;-115.438;2024-01-16T12:27:53;19.33;;;8.95;;
61104;SDS011;46987;32.638;-115.438;2024-01-16T12:30:20;18.40;;;8.45;;
61104;SDS011;46987;32.638;-115.438;2024-01-16T12:32:47;14.73;;;7.65;;
61104;SDS011;46987;32.638;-115.438;2024-01-16T12:35:19;19.45;;;7.78;;
61104;SDS011;46987;32.638;-115.438;2024-01-16T12:37:58;16.15;;;7.13;;
61104;SDS011;46987;32.638;-115.438;2024-01-16T12:40:26;15.10;;;6.45;;
61104;SDS011;46987;32.638;-115.438;2024-01-16T12:42:52;10.38;;;4.70;;
61104;SDS011;46987;32.638;-115.438;2024-01-16T12:45:19;10.65;;;4.45;;
61104;SDS011;46987;32.638;-115.438;2024-01-16T12:47:49;9.82;;;3.53;;
61104;SDS011;46987;32.638;-115.438;2024-01-16T12:50:19;9.57;;;3.85;;
61104;SDS011;46987;32.638;-115.438;2024-01-16T12:52:46;9.75;;;4.13;;
61104;SDS011;46987;32.638;-115.438;2024-01-16T12:55:15;8.25;;;3.50;;
61104;SDS011;46987;32.638;-115.438;2024-01-16T12:57:42;12.18;;;4.07;;
61104;SDS011;46987;32.638;-115.438;2024-01-16T13:00:21;13.20;;;5.25;;
61104;SDS011;46987;32.638;-115.438;2024-01-16T13:02:49;11.23;;;5.00;;
61104;SDS011;46987;32.638;-115.438;2024-01-16T13:05:16;11.85;;;6.35;;
61104;SDS011;46987;32.638;-115.438;2024-01-16T13:07:44;11.55;;;5.88;;
61104;SDS011;46987;32.638;-115.438;2024-01-16T13:10:11;10.65;;;5.95;;
61104;SDS011;46987;32.638;-115.438;2024-01-16T13:12:40;15.68;;;6.57;;
61104;SDS011;46987;32.638;-115.438;2024-01-16T13:15:07;13.23;;;7.18;;
61104;SDS011;46987;32.638;-115.438;2024-01-16T13:17:34;21.88;;;7.32;;
61104;SDS011;46987;32.638;-115.438;2024-01-16T13:20:01;13.05;;;6.55;;
61104;SDS011;46987;32.638;-115.438;2024-01-16T13:22:29;10.75;;;5.72;;
61104;SDS011;46987;32.638;-115.438;2024-01-16T13:24:56;10.77;;;5.78;;
61104;SDS011;46987;32.638;-115.438;2024-01-16T13:27:24;12.82;;;5.20;;
61104;SDS011;46987;32.638;-115.438;2024-01-16T13:29:54;9.35;;;5.03;;
61104;SDS011;46987;32.638;-115.438;2024-01-16T13:32:21;8.00;;;4.05;;
61104;SDS011;46987;32.638;-115.438;2024-01-16T13:34:47;9.48;;;3.97;;
61104;SDS011;46987;32.638;-115.438;2024-01-16T13:37:18;10.15;;;4.72;;
61104;SDS011;46987;32.638;-115.438;2024-01-16T13:39:45;9.10;;;3.80;;
61104;SDS011;46987;32.638;-115.438;2024-01-16T13:42:15;15.07;;;4.45;;
61104;SDS011;46987;32.638;-115.438;2024-01-16T13:44:44;10.18;;;4.10;;
61104;SDS011;46987;32.638;-115.438;2024-01-16T13:47:13;15.32;;;5.20;;
61104;SDS011;46987;32.638;-115.438;2024-01-16T13:49:40;11.63;;;5.30;;
61104;SDS011;46987;32.638;-115.438;2024-01-16T13:52:07;13.90;;;5.90;;
61104;SDS011;46987;32.638;-115.438;2024-01-16T13:54:36;14.27;;;5.60;;
61104;SDS011;46987;32.638;-115.438;2024-01-16T13:57:03;12.70;;;6.60;;
61104;SDS011;46987;32.638;-115.438;2024-01-16T13:59:29;15.35;;;6.53;;